sensor_id;sensor_type;location;lat;lon;timestamp;pressure;altitude;pressure_sealevel;temperature;humidity
68077;BME280;54866;53.458;14.540;2022-09-09T00:01:50;100172.80;;;14.58;99.59
68077;BME280;54866;53.458;14.540;2022-09-09T00:04:25;100174.54;;;14.57;99.44
68077;BME280;54866;53.458;14.540;2022-09-09T00:06:59;100176.67;;;14.57;99.13
68077;BME280;54866;53.458;14.540;2022-09-09T00:09:39;100177.29;;;14.56;98.59
68077;BME280;54866;53.458;14.540;2022-09-09T00:12:16;100178.75;;;14.57;98.03
68077;BME280;54866;53.458;14.540;2022-09-09T00:14:54;100180.41;;;14.57;97.89
68077;BME280;54866;53.458;14.540;2022-09-09T00:17:35;100176.73;;;14.55;97.70
68077;BME280;54866;53.458;14.540;2022-09-09T00:20:17;100167.60;;;14.52;97.66
68077;BME280;54866;53.458;14.540;2022-09-09T00:23:04;100164.44;;;14.50;97.51
68077;BME280;54866;53.458;14.540;2022-09-09T00:28:36;100145.06;;;14.38;97.53
68077;BME280;54866;53.458;14.540;2022-09-09T00:31:10;100165.06;;;14.45;97.47
68077;BME280;54866;53.458;14.540;2022-09-09T00:33:49;100167.17;;;14.44;97.46
68077;BME280;54866;53.458;14.540;2022-09-09T00:39:23;100172.96;;;14.39;97.42
68077;BME280;54866;53.458;14.540;2022-09-09T00:41:55;100176.98;;;14.41;97.28
68077;BME280;54866;53.458;14.540;2022-09-09T00:44:55;100182.56;;;14.40;97.23
68077;BME280;54866;53.458;14.540;2022-09-09T00:47:57;100194.20;;;14.39;97.45
68077;BME280;54866;53.458;14.540;2022-09-09T00:50:34;100195.06;;;14.38;97.47
68077;BME280;54866;53.458;14.540;2022-09-09T00:55:48;100184.63;;;14.25;97.54
68077;BME280;54866;53.458;14.540;2022-09-09T00:58:19;100199.83;;;14.33;97.62
68077;BME280;54866;53.458;14.540;2022-09-09T01:00:53;100195.27;;;14.29;97.84
68077;BME280;54866;53.458;14.540;2022-09-09T01:03:28;100196.66;;;14.31;97.76
68077;BME280;54866;53.458;14.540;2022-09-09T01:06:10;100201.63;;;14.33;97.92
68077;BME280;54866;53.458;14.540;2022-09-09T01:11:36;100190.44;;;14.25;97.77
68077;BME280;54866;53.458;14.540;2022-09-09T01:14:11;100205.14;;;14.28;97.93
68077;BME280;54866;53.458;14.540;2022-09-09T01:16:42;100204.41;;;14.27;97.87
68077;BME280;54866;53.458;14.540;2022-09-09T01:21:59;100187.95;;;14.12;97.45
68077;BME280;54866;53.458;14.540;2022-09-09T01:25:01;100192.58;;;14.10;97.68
68077;BME280;54866;53.458;14.540;2022-09-09T01:27:35;100204.52;;;14.16;97.40
68077;BME280;54866;53.458;14.540;2022-09-09T01:30:10;100207.89;;;14.13;97.45
68077;BME280;54866;53.458;14.540;2022-09-09T01:35:26;100219.79;;;14.06;97.78
68077;BME280;54866;53.458;14.540;2022-09-09T01:40:41;100203.23;;;13.89;98.04
68077;BME280;54866;53.458;14.540;2022-09-09T01:43:11;100228.87;;;14.00;98.19
68077;BME280;54866;53.458;14.540;2022-09-09T01:45:39;100203.31;;;13.86;98.16
68077;BME280;54866;53.458;14.540;2022-09-09T01:48:09;100225.77;;;13.97;97.99
68077;BME280;54866;53.458;14.540;2022-09-09T01:50:38;100226.48;;;13.97;98.17
68077;BME280;54866;53.458;14.540;2022-09-09T01:53:06;100229.64;;;13.96;98.29
68077;BME280;54866;53.458;14.540;2022-09-09T01:55:39;100234.02;;;13.95;98.13
68077;BME280;54866;53.458;14.540;2022-09-09T01:58:14;100235.89;;;13.93;98.01
68077;BME280;54866;53.458;14.540;2022-09-09T02:00:49;100236.73;;;13.92;97.90
68077;BME280;54866;53.458;14.540;2022-09-09T02:03:22;100237.31;;;13.92;98.14
68077;BME280;54866;53.458;14.540;2022-09-09T02:05:55;100234.84;;;13.90;98.02
68077;BME280;54866;53.458;14.540;2022-09-09T02:08:29;100220.25;;;13.78;98.08
68077;BME280;54866;53.458;14.540;2022-09-09T02:11:01;100234.29;;;13.88;98.27
68077;BME280;54866;53.458;14.540;2022-09-09T02:13:31;100231.81;;;13.88;98.33
68077;BME280;54866;53.458;14.540;2022-09-09T02:16:02;100236.11;;;13.87;98.40
68077;BME280;54866;53.458;14.540;2022-09-09T02:18:34;100236.58;;;13.86;98.50
68077;BME280;54866;53.458;14.540;2022-09-09T02:21:03;100239.73;;;13.85;98.49
68077;BME280;54866;53.458;14.540;2022-09-09T02:23:33;100231.95;;;13.81;98.84
68077;BME280;54866;53.458;14.540;2022-09-09T02:26:01;100239.25;;;13.84;98.98
68077;BME280;54866;53.458;14.540;2022-09-09T02:28:31;100239.35;;;13.83;98.83
68077;BME280;54866;53.458;14.540;2022-09-09T02:31:03;100233.34;;;13.80;98.92
68077;BME280;54866;53.458;14.540;2022-09-09T02:33:41;100223.00;;;13.75;99.39
68077;BME280;54866;53.458;14.540;2022-09-09T02:36:11;100211.88;;;13.68;99.55
68077;BME280;54866;53.458;14.540;2022-09-09T02:38:46;100233.61;;;13.81;99.46
68077;BME280;54866;53.458;14.540;2022-09-09T02:41:25;100227.16;;;13.72;99.22
68077;BME280;54866;53.458;14.540;2022-09-09T02:43:57;100235.45;;;13.75;99.62
68077;BME280;54866;53.458;14.540;2022-09-09T02:46:35;100248.91;;;13.78;99.73
68077;BME280;54866;53.458;14.540;2022-09-09T02:49:10;100243.94;;;13.69;99.63
68077;BME280;54866;53.458;14.540;2022-09-09T02:51:44;100246.45;;;13.71;99.76
68077;BME280;54866;53.458;14.540;2022-09-09T02:54:26;100239.73;;;13.67;99.65
68077;BME280;54866;53.458;14.540;2022-09-09T02:56:59;100243.66;;;13.69;99.60
68077;BME280;54866;53.458;14.540;2022-09-09T02:59:29;100244.01;;;13.69;99.71
68077;BME280;54866;53.458;14.540;2022-09-09T03:01:58;100239.77;;;13.63;99.77
68077;BME280;54866;53.458;14.540;2022-09-09T03:04:28;100242.77;;;13.65;99.86
68077;BME280;54866;53.458;14.540;2022-09-09T03:06:58;100250.20;;;13.70;99.84
68077;BME280;54866;53.458;14.540;2022-09-09T03:09:29;100248.55;;;13.67;99.80
68077;BME280;54866;53.458;14.540;2022-09-09T03:11:59;100263.61;;;13.71;99.94
68077;BME280;54866;53.458;14.540;2022-09-09T03:14:27;100263.08;;;13.71;99.97
68077;BME280;54866;53.458;14.540;2022-09-09T03:16:57;100261.65;;;13.71;100.00
68077;BME280;54866;53.458;14.540;2022-09-09T03:19:35;100261.20;;;13.72;99.96
68077;BME280;54866;53.458;14.540;2022-09-09T03:22:04;100260.55;;;13.73;99.94
68077;BME280;54866;53.458;14.540;2022-09-09T03:24:33;100258.89;;;13.70;99.89
68077;BME280;54866;53.458;14.540;2022-09-09T03:27:02;100260.24;;;13.73;99.80
68077;BME280;54866;53.458;14.540;2022-09-09T03:29:31;100256.16;;;13.73;99.80
68077;BME280;54866;53.458;14.540;2022-09-09T03:31:59;100254.27;;;13.73;99.68
68077;BME280;54866;53.458;14.540;2022-09-09T03:34:28;100251.36;;;13.70;99.59
68077;BME280;54866;53.458;14.540;2022-09-09T03:36:56;100253.64;;;13.68;99.64
68077;BME280;54866;53.458;14.540;2022-09-09T03:39:26;100247.15;;;13.62;99.56
68077;BME280;54866;53.458;14.540;2022-09-09T03:41:55;100255.84;;;13.62;99.77
68077;BME280;54866;53.458;14.540;2022-09-09T03:47:08;100257.02;;;13.57;99.91
68077;BME280;54866;53.458;14.540;2022-09-09T03:49:41;100245.88;;;13.51;100.00
68077;BME280;54866;53.458;14.540;2022-09-09T03:52:09;100247.19;;;13.52;100.00
68077;BME280;54866;53.458;14.540;2022-09-09T03:54:38;100249.80;;;13.51;100.00
68077;BME280;54866;53.458;14.540;2022-09-09T03:57:10;100257.05;;;13.49;100.00
68077;BME280;54866;53.458;14.540;2022-09-09T03:59:43;100257.45;;;13.49;100.00
68077;BME280;54866;53.458;14.540;2022-09-09T04:02:14;100236.48;;;13.37;100.00
68077;BME280;54866;53.458;14.540;2022-09-09T04:04:42;100250.61;;;13.43;100.00
68077;BME280;54866;53.458;14.540;2022-09-09T04:07:11;100260.99;;;13.49;100.00
68077;BME280;54866;53.458;14.540;2022-09-09T04:09:39;100259.39;;;13.45;100.00
68077;BME280;54866;53.458;14.540;2022-09-09T04:12:08;100252.59;;;13.39;100.00
68077;BME280;54866;53.458;14.540;2022-09-09T04:14:37;100263.13;;;13.43;100.00
68077;BME280;54866;53.458;14.540;2022-09-09T04:17:06;100269.29;;;13.42;100.00
68077;BME280;54866;53.458;14.540;2022-09-09T04:19:34;100271.02;;;13.41;100.00
68077;BME280;54866;53.458;14.540;2022-09-09T04:22:02;100273.96;;;13.38;100.00
68077;BME280;54866;53.458;14.540;2022-09-09T04:24:30;100276.27;;;13.36;100.00
68077;BME280;54866;53.458;14.540;2022-09-09T04:26:59;100266.10;;;13.31;100.00
68077;BME280;54866;53.458;14.540;2022-09-09T04:29:27;100274.89;;;13.32;100.00
68077;BME280;54866;53.458;14.540;2022-09-09T04:31:55;100282.20;;;13.29;100.00
68077;BME280;54866;53.458;14.540;2022-09-09T04:34:24;100283.07;;;13.30;100.00
68077;BME280;54866;53.458;14.540;2022-09-09T04:36:53;100287.54;;;13.29;100.00
68077;BME280;54866;53.458;14.540;2022-09-09T04:39:25;100290.16;;;13.29;100.00
68077;BME280;54866;53.458;14.540;2022-09-09T04:41:58;100284.94;;;13.28;100.00
68077;BME280;54866;53.458;14.540;2022-09-09T04:44:28;100280.73;;;13.26;100.00
68077;BME280;54866;53.458;14.540;2022-09-09T04:46:57;100278.52;;;13.25;100.00
68077;BME280;54866;53.458;14.540;2022-09-09T04:49:25;100278.48;;;13.27;100.00
68077;BME280;54866;53.458;14.540;2022-09-09T04:51:54;100265.38;;;13.24;100.00
68077;BME280;54866;53.458;14.540;2022-09-09T04:54:24;100270.17;;;13.29;100.00
68077;BME280;54866;53.458;14.540;2022-09-09T04:56:58;100290.36;;;13.42;100.00
68077;BME280;54866;53.458;14.540;2022-09-09T04:59:26;100292.23;;;13.46;100.00
68077;BME280;54866;53.458;14.540;2022-09-09T05:01:56;100297.21;;;13.49;100.00
68077;BME280;54866;53.458;14.540;2022-09-09T05:04:24;100290.14;;;13.49;100.00
68077;BME280;54866;53.458;14.540;2022-09-09T05:06:53;100275.13;;;13.47;100.00
68077;BME280;54866;53.458;14.540;2022-09-09T05:09:21;100291.04;;;13.60;100.00
68077;BME280;54866;53.458;14.540;2022-09-09T05:11:50;100286.08;;;13.62;100.00
68077;BME280;54866;53.458;14.540;2022-09-09T05:14:18;100292.40;;;13.68;100.00
68077;BME280;54866;53.458;14.540;2022-09-09T05:16:46;100292.11;;;13.71;100.00
68077;BME280;54866;53.458;14.540;2022-09-09T05:19:16;100294.86;;;13.76;100.00
68077;BME280;54866;53.458;14.540;2022-09-09T05:21:46;100297.47;;;13.78;100.00
68077;BME280;54866;53.458;14.540;2022-09-09T05:24:14;100308.08;;;13.83;100.00
68077;BME280;54866;53.458;14.540;2022-09-09T05:26:43;100306.23;;;13.86;100.00
68077;BME280;54866;53.458;14.540;2022-09-09T05:29:11;100304.47;;;13.90;100.00
68077;BME280;54866;53.458;14.540;2022-09-09T05:31:39;100298.27;;;13.91;100.00
68077;BME280;54866;53.458;14.540;2022-09-09T05:34:10;100308.71;;;14.00;100.00
68077;BME280;54866;53.458;14.540;2022-09-09T05:36:39;100312.42;;;14.04;100.00
68077;BME280;54866;53.458;14.540;2022-09-09T05:39:07;100315.81;;;14.07;100.00
68077;BME280;54866;53.458;14.540;2022-09-09T05:41:35;100326.30;;;14.10;100.00
68077;BME280;54866;53.458;14.540;2022-09-09T05:44:04;100333.60;;;14.13;100.00
68077;BME280;54866;53.458;14.540;2022-09-09T05:46:33;100327.60;;;14.12;100.00
68077;BME280;54866;53.458;14.540;2022-09-09T05:49:01;100334.15;;;14.17;100.00
68077;BME280;54866;53.458;14.540;2022-09-09T05:51:32;100333.02;;;14.16;100.00
68077;BME280;54866;53.458;14.540;2022-09-09T05:54:04;100335.75;;;14.21;100.00
68077;BME280;54866;53.458;14.540;2022-09-09T05:56:32;100335.25;;;14.22;100.00
68077;BME280;54866;53.458;14.540;2022-09-09T05:59:02;100341.45;;;14.24;100.00
68077;BME280;54866;53.458;14.540;2022-09-09T06:01:42;100345.38;;;14.26;100.00
68077;BME280;54866;53.458;14.540;2022-09-09T06:04:13;100342.77;;;14.23;100.00
68077;BME280;54866;53.458;14.540;2022-09-09T06:06:44;100343.36;;;14.26;100.00
68077;BME280;54866;53.458;14.540;2022-09-09T06:09:13;100339.20;;;14.25;100.00
68077;BME280;54866;53.458;14.540;2022-09-09T06:11:43;100334.63;;;14.25;100.00
68077;BME280;54866;53.458;14.540;2022-09-09T06:14:13;100340.21;;;14.33;100.00
68077;BME280;54866;53.458;14.540;2022-09-09T06:16:41;100333.06;;;14.28;100.00
68077;BME280;54866;53.458;14.540;2022-09-09T06:19:12;100341.23;;;14.36;100.00
68077;BME280;54866;53.458;14.540;2022-09-09T06:21:45;100335.79;;;14.38;100.00
68077;BME280;54866;53.458;14.540;2022-09-09T06:24:14;100332.51;;;14.41;100.00
68077;BME280;54866;53.458;14.540;2022-09-09T06:26:44;100328.48;;;14.42;100.00
68077;BME280;54866;53.458;14.540;2022-09-09T06:29:12;100335.64;;;14.54;100.00
68077;BME280;54866;53.458;14.540;2022-09-09T06:31:40;100341.13;;;14.61;100.00
68077;BME280;54866;53.458;14.540;2022-09-09T06:34:09;100336.81;;;14.60;100.00
68077;BME280;54866;53.458;14.540;2022-09-09T06:36:39;100337.76;;;14.57;100.00
68077;BME280;54866;53.458;14.540;2022-09-09T06:39:09;100340.62;;;14.61;100.00
68077;BME280;54866;53.458;14.540;2022-09-09T06:41:42;100353.33;;;14.70;99.99
68077;BME280;54866;53.458;14.540;2022-09-09T06:44:10;100356.90;;;14.75;99.84
68077;BME280;54866;53.458;14.540;2022-09-09T06:46:39;100354.16;;;14.74;99.65
68077;BME280;54866;53.458;14.540;2022-09-09T06:49:08;100350.52;;;14.75;99.64
68077;BME280;54866;53.458;14.540;2022-09-09T06:51:39;100363.08;;;14.75;99.22
68077;BME280;54866;53.458;14.540;2022-09-09T06:54:16;100335.55;;;14.63;98.94
68077;BME280;54866;53.458;14.540;2022-09-09T06:56:46;100361.06;;;14.78;98.76
68077;BME280;54866;53.458;14.540;2022-09-09T06:59:15;100359.91;;;14.79;98.21
68077;BME280;54866;53.458;14.540;2022-09-09T07:14:16;100368.90;;;15.09;96.41
68077;BME280;54866;53.458;14.540;2022-09-09T07:23:12;100357.70;;;15.12;95.03
68077;BME280;54866;53.458;14.540;2022-09-09T07:59:26;100374.30;;;16.25;89.47
68077;BME280;54866;53.458;14.540;2022-09-09T08:01:56;100375.55;;;16.51;88.85
68077;BME280;54866;53.458;14.540;2022-09-09T08:04:25;100376.97;;;16.74;88.05
68077;BME280;54866;53.458;14.540;2022-09-09T08:06:55;100374.85;;;16.81;86.10
68077;BME280;54866;53.458;14.540;2022-09-09T08:09:24;100386.01;;;16.88;86.47
68077;BME280;54866;53.458;14.540;2022-09-09T08:11:55;100391.45;;;17.00;86.43
68077;BME280;54866;53.458;14.540;2022-09-09T08:14:24;100393.61;;;17.04;85.95
68077;BME280;54866;53.458;14.540;2022-09-09T08:16:52;100391.73;;;17.10;85.62
68077;BME280;54866;53.458;14.540;2022-09-09T08:19:21;100393.45;;;17.76;84.34
68077;BME280;54866;53.458;14.540;2022-09-09T08:21:50;100392.36;;;17.87;82.46
68077;BME280;54866;53.458;14.540;2022-09-09T08:24:18;100400.33;;;17.80;81.57
68077;BME280;54866;53.458;14.540;2022-09-09T08:26:47;100398.71;;;17.84;82.21
68077;BME280;54866;53.458;14.540;2022-09-09T08:29:16;100401.73;;;18.09;81.33
68077;BME280;54866;53.458;14.540;2022-09-09T08:31:45;100401.09;;;18.23;80.64
68077;BME280;54866;53.458;14.540;2022-09-09T08:34:13;100401.65;;;18.35;80.17
68077;BME280;54866;53.458;14.540;2022-09-09T08:36:42;100396.48;;;18.65;79.48
68077;BME280;54866;53.458;14.540;2022-09-09T08:39:11;100393.77;;;19.13;77.89
68077;BME280;54866;53.458;14.540;2022-09-09T08:41:42;100394.25;;;19.26;75.34
68077;BME280;54866;53.458;14.540;2022-09-09T08:44:17;100397.82;;;19.31;74.19
68077;BME280;54866;53.458;14.540;2022-09-09T08:46:50;100398.92;;;19.53;74.19
68077;BME280;54866;53.458;14.540;2022-09-09T08:49:29;100392.09;;;20.10;72.73
68077;BME280;54866;53.458;14.540;2022-09-09T08:52:06;100391.59;;;20.59;69.58
68077;BME280;54866;53.458;14.540;2022-09-09T08:54:38;100392.77;;;20.48;66.92
68077;BME280;54866;53.458;14.540;2022-09-09T08:57:07;100391.14;;;20.98;65.90
68077;BME280;54866;53.458;14.540;2022-09-09T08:59:37;100392.63;;;22.06;64.20
68077;BME280;54866;53.458;14.540;2022-09-09T09:02:07;100393.67;;;24.10;58.68
68077;BME280;54866;53.458;14.540;2022-09-09T09:04:54;100389.30;;;25.86;55.30
68077;BME280;54866;53.458;14.540;2022-09-09T09:07:28;100387.27;;;27.42;50.57
68077;BME280;54866;53.458;14.540;2022-09-09T09:10:00;100387.41;;;27.95;47.95
68077;BME280;54866;53.458;14.540;2022-09-09T09:12:32;100379.03;;;29.24;45.60
68077;BME280;54866;53.458;14.540;2022-09-09T09:15:05;100374.50;;;30.35;42.00
68077;BME280;54866;53.458;14.540;2022-09-09T09:17:39;100376.55;;;30.91;38.07
68077;BME280;54866;53.458;14.540;2022-09-09T09:20:12;100374.86;;;31.21;39.16
68077;BME280;54866;53.458;14.540;2022-09-09T09:22:46;100370.89;;;31.76;36.87
68077;BME280;54866;53.458;14.540;2022-09-09T09:25:16;100371.92;;;32.19;37.05
68077;BME280;54866;53.458;14.540;2022-09-09T09:27:46;100369.84;;;32.42;34.93
68077;BME280;54866;53.458;14.540;2022-09-09T09:30:18;100376.69;;;32.54;35.07
68077;BME280;54866;53.458;14.540;2022-09-09T09:32:49;100371.92;;;32.70;34.41
68077;BME280;54866;53.458;14.540;2022-09-09T09:35:20;100369.09;;;32.69;34.02
68077;BME280;54866;53.458;14.540;2022-09-09T09:37:50;100370.63;;;32.75;33.73
68077;BME280;54866;53.458;14.540;2022-09-09T09:40:19;100371.66;;;32.70;34.15
68077;BME280;54866;53.458;14.540;2022-09-09T09:42:52;100369.66;;;32.83;33.35
68077;BME280;54866;53.458;14.540;2022-09-09T09:45:28;100374.67;;;32.81;32.83
68077;BME280;54866;53.458;14.540;2022-09-09T09:48:02;100383.29;;;31.34;35.07
68077;BME280;54866;53.458;14.540;2022-09-09T09:50:31;100379.34;;;31.01;35.60
68077;BME280;54866;53.458;14.540;2022-09-09T09:53:02;100375.11;;;30.68;35.78
68077;BME280;54866;53.458;14.540;2022-09-09T09:55:31;100373.63;;;30.87;36.02
68077;BME280;54866;53.458;14.540;2022-09-09T09:58:04;100376.30;;;30.95;36.22
68077;BME280;54866;53.458;14.540;2022-09-09T10:00:33;100380.64;;;31.47;35.92
68077;BME280;54866;53.458;14.540;2022-09-09T10:03:12;100376.80;;;31.71;34.94
68077;BME280;54866;53.458;14.540;2022-09-09T10:05:44;100378.39;;;31.85;35.04
68077;BME280;54866;53.458;14.540;2022-09-09T10:08:14;100378.86;;;31.72;35.07
68077;BME280;54866;53.458;14.540;2022-09-09T10:10:50;100383.81;;;32.09;35.32
68077;BME280;54866;53.458;14.540;2022-09-09T10:13:23;100378.33;;;32.47;33.76
68077;BME280;54866;53.458;14.540;2022-09-09T10:16:01;100378.77;;;32.59;33.95
68077;BME280;54866;53.458;14.540;2022-09-09T10:18:39;100371.53;;;33.13;34.52
68077;BME280;54866;53.458;14.540;2022-09-09T10:21:14;100368.88;;;33.66;31.87
68077;BME280;54866;53.458;14.540;2022-09-09T10:23:59;100376.02;;;33.19;33.15
68077;BME280;54866;53.458;14.540;2022-09-09T10:26:38;100378.27;;;32.32;34.00
68077;BME280;54866;53.458;14.540;2022-09-09T10:29:21;100377.56;;;30.83;35.49
68077;BME280;54866;53.458;14.540;2022-09-09T10:31:51;100382.52;;;29.62;37.71
68077;BME280;54866;53.458;14.540;2022-09-09T10:34:27;100383.88;;;28.58;39.35
68077;BME280;54866;53.458;14.540;2022-09-09T10:37:03;100391.15;;;27.71;41.40
68077;BME280;54866;53.458;14.540;2022-09-09T10:39:36;100394.08;;;27.22;43.26
68077;BME280;54866;53.458;14.540;2022-09-09T10:42:08;100394.65;;;27.64;43.41
68077;BME280;54866;53.458;14.540;2022-09-09T10:44:51;100395.73;;;27.54;42.99
68077;BME280;54866;53.458;14.540;2022-09-09T10:47:28;100394.00;;;27.37;43.90
68077;BME280;54866;53.458;14.540;2022-09-09T10:50:12;100392.74;;;28.16;43.09
68077;BME280;54866;53.458;14.540;2022-09-09T10:52:46;100396.07;;;28.54;41.65
68077;BME280;54866;53.458;14.540;2022-09-09T10:55:18;100396.55;;;28.39;40.80
68077;BME280;54866;53.458;14.540;2022-09-09T10:57:48;100391.87;;;28.00;41.79
68077;BME280;54866;53.458;14.540;2022-09-09T11:00:17;100394.99;;;27.38;42.02
68077;BME280;54866;53.458;14.540;2022-09-09T11:02:46;100399.21;;;26.46;44.23
68077;BME280;54866;53.458;14.540;2022-09-09T11:05:16;100404.59;;;25.94;45.51
68077;BME280;54866;53.458;14.540;2022-09-09T11:07:47;100408.59;;;25.53;45.37
68077;BME280;54866;53.458;14.540;2022-09-09T11:10:19;100411.69;;;25.22;46.13
68077;BME280;54866;53.458;14.540;2022-09-09T11:12:50;100402.86;;;25.89;45.61
68077;BME280;54866;53.458;14.540;2022-09-09T11:15:22;100396.65;;;26.64;44.41
68077;BME280;54866;53.458;14.540;2022-09-09T11:17:53;100397.08;;;27.54;42.57
68077;BME280;54866;53.458;14.540;2022-09-09T11:20:24;100397.81;;;28.20;41.31
68077;BME280;54866;53.458;14.540;2022-09-09T11:22:54;100398.58;;;29.10;39.96
68077;BME280;54866;53.458;14.540;2022-09-09T11:25:25;100392.87;;;29.53;38.27
68077;BME280;54866;53.458;14.540;2022-09-09T11:28:02;100393.44;;;29.43;37.59
68077;BME280;54866;53.458;14.540;2022-09-09T11:30:38;100389.89;;;29.16;38.26
68077;BME280;54866;53.458;14.540;2022-09-09T11:38:57;100387.17;;;29.84;37.60
68077;BME280;54866;53.458;14.540;2022-09-09T11:41:33;100394.38;;;29.41;37.21
68077;BME280;54866;53.458;14.540;2022-09-09T11:44:08;100397.52;;;28.34;38.14
68077;BME280;54866;53.458;14.540;2022-09-09T11:46:38;100402.33;;;27.41;40.02
68077;BME280;54866;53.458;14.540;2022-09-09T11:49:22;100406.39;;;26.99;41.70
68077;BME280;54866;53.458;14.540;2022-09-09T11:51:53;100401.21;;;27.25;42.00
68077;BME280;54866;53.458;14.540;2022-09-09T11:54:31;100402.59;;;26.95;42.20
68077;BME280;54866;53.458;14.540;2022-09-09T11:57:00;100401.48;;;26.29;42.72
68077;BME280;54866;53.458;14.540;2022-09-09T11:59:31;100399.38;;;25.74;44.32
68077;BME280;54866;53.458;14.540;2022-09-09T12:02:00;100397.78;;;25.21;45.24
68077;BME280;54866;53.458;14.540;2022-09-09T12:04:29;100401.59;;;24.88;46.05
68077;BME280;54866;53.458;14.540;2022-09-09T12:06:59;100396.54;;;24.75;46.44
68077;BME280;54866;53.458;14.540;2022-09-09T12:09:31;100392.91;;;24.65;46.87
68077;BME280;54866;53.458;14.540;2022-09-09T12:12:06;100398.63;;;24.60;46.91
68077;BME280;54866;53.458;14.540;2022-09-09T12:14:42;100401.30;;;24.72;46.83
68077;BME280;54866;53.458;14.540;2022-09-09T12:17:15;100398.23;;;24.84;46.74
68077;BME280;54866;53.458;14.540;2022-09-09T12:19:46;100401.79;;;24.73;46.78
68077;BME280;54866;53.458;14.540;2022-09-09T12:22:18;100399.73;;;24.54;46.97
68077;BME280;54866;53.458;14.540;2022-09-09T12:24:52;100396.78;;;24.53;46.83
68077;BME280;54866;53.458;14.540;2022-09-09T12:27:23;100393.45;;;24.59;47.16
68077;BME280;54866;53.458;14.540;2022-09-09T12:29:55;100390.80;;;24.78;47.16
68077;BME280;54866;53.458;14.540;2022-09-09T12:32:27;100384.25;;;25.51;46.53
68077;BME280;54866;53.458;14.540;2022-09-09T12:34:58;100378.38;;;26.47;44.74
68077;BME280;54866;53.458;14.540;2022-09-09T12:37:29;100376.06;;;26.96;43.86
68077;BME280;54866;53.458;14.540;2022-09-09T12:40:01;100379.90;;;26.83;42.69
68077;BME280;54866;53.458;14.540;2022-09-09T12:42:31;100380.84;;;26.42;42.86
68077;BME280;54866;53.458;14.540;2022-09-09T12:45:01;100382.73;;;25.94;43.32
68077;BME280;54866;53.458;14.540;2022-09-09T12:47:36;100381.77;;;25.38;44.37
68077;BME280;54866;53.458;14.540;2022-09-09T12:50:14;100383.34;;;25.08;45.15
68077;BME280;54866;53.458;14.540;2022-09-09T12:52:43;100384.95;;;24.78;46.19
68077;BME280;54866;53.458;14.540;2022-09-09T12:55:16;100381.20;;;24.53;46.09
68077;BME280;54866;53.458;14.540;2022-09-09T12:57:45;100379.92;;;24.27;46.22
68077;BME280;54866;53.458;14.540;2022-09-09T13:00:17;100376.66;;;23.99;46.42
68077;BME280;54866;53.458;14.540;2022-09-09T13:02:48;100378.13;;;23.88;46.76
68077;BME280;54866;53.458;14.540;2022-09-09T13:05:19;100372.23;;;24.47;46.06
68077;BME280;54866;53.458;14.540;2022-09-09T13:07:48;100366.48;;;25.31;44.70
68077;BME280;54866;53.458;14.540;2022-09-09T13:10:20;100365.13;;;25.96;43.33
68077;BME280;54866;53.458;14.540;2022-09-09T13:12:50;100357.13;;;25.90;42.83
68077;BME280;54866;53.458;14.540;2022-09-09T13:15:21;100351.25;;;26.34;42.10
68077;BME280;54866;53.458;14.540;2022-09-09T13:17:52;100352.69;;;27.20;41.01
68077;BME280;54866;53.458;14.540;2022-09-09T13:20:22;100356.80;;;27.69;39.57
68077;BME280;54866;53.458;14.540;2022-09-09T13:22:51;100353.30;;;27.67;39.79
68077;BME280;54866;53.458;14.540;2022-09-09T13:25:22;100356.23;;;27.33;40.64
68077;BME280;54866;53.458;14.540;2022-09-09T13:27:53;100350.46;;;27.57;41.00
68077;BME280;54866;53.458;14.540;2022-09-09T13:30:23;100344.04;;;27.77;39.75
68077;BME280;54866;53.458;14.540;2022-09-09T13:33:01;100344.95;;;27.21;40.73
68077;BME280;54866;53.458;14.540;2022-09-09T13:35:29;100343.17;;;26.48;41.29
68077;BME280;54866;53.458;14.540;2022-09-09T13:37:57;100341.96;;;25.87;42.64
68077;BME280;54866;53.458;14.540;2022-09-09T13:40:26;100342.49;;;25.48;43.73
68077;BME280;54866;53.458;14.540;2022-09-09T13:42:55;100339.21;;;25.39;43.85
68077;BME280;54866;53.458;14.540;2022-09-09T13:45:25;100338.49;;;25.96;43.62
68077;BME280;54866;53.458;14.540;2022-09-09T13:47:54;100340.28;;;26.29;43.15
68077;BME280;54866;53.458;14.540;2022-09-09T13:50:23;100344.67;;;26.05;42.16
68077;BME280;54866;53.458;14.540;2022-09-09T13:52:53;100348.17;;;25.92;42.40
68077;BME280;54866;53.458;14.540;2022-09-09T13:55:23;100346.38;;;26.17;41.78
68077;BME280;54866;53.458;14.540;2022-09-09T13:57:52;100342.02;;;26.56;41.70
68077;BME280;54866;53.458;14.540;2022-09-09T14:00:21;100335.05;;;27.17;40.52
68077;BME280;54866;53.458;14.540;2022-09-09T14:02:50;100338.38;;;27.41;40.44
68077;BME280;54866;53.458;14.540;2022-09-09T14:05:18;100339.56;;;27.35;40.87
68077;BME280;54866;53.458;14.540;2022-09-09T14:07:47;100338.79;;;27.26;41.31
68077;BME280;54866;53.458;14.540;2022-09-09T14:10:16;100335.00;;;27.22;41.58
68077;BME280;54866;53.458;14.540;2022-09-09T14:12:44;100339.64;;;27.16;41.36
68077;BME280;54866;53.458;14.540;2022-09-09T14:15:13;100334.52;;;27.10;41.08
68077;BME280;54866;53.458;14.540;2022-09-09T14:17:42;100328.50;;;27.25;41.02
68077;BME280;54866;53.458;14.540;2022-09-09T14:20:10;100327.34;;;26.99;41.20
68077;BME280;54866;53.458;14.540;2022-09-09T14:22:41;100329.01;;;26.45;41.94